Time;durP1;ratioP1;P1;durP2;ratioP2;P2;SDS_P1;SDS_P2;PMS_P1;PMS_P2;Temp;Humidity;BMP_temperature;BMP_pressure;BME280_temperature;BME280_humidity;BME280_pressure;Samples;Min_cycle;Max_cycle;Signal;HPM_P1;HPM_P2
2022/07/24 00:00:48;0.00;0.00;0.62;0.00;0.00;0.62;5.20;4.40;;;25.40;31.60;;;;;;2223283;62;20632;-62
2022/07/24 00:03:33;0.00;0.00;0.62;0.00;0.00;0.62;6.70;4.53;;;25.40;31.70;;;;;;2225883;62;20370;-62
2022/07/24 00:06:19;0.00;0.00;0.62;0.00;0.00;0.62;5.60;4.40;;;25.40;31.80;;;;;;2225963;62;20400;-62
2022/07/24 00:09:05;0.00;0.00;0.62;0.00;0.00;0.62;4.40;3.63;;;25.30;32.00;;;;;;2226048;62;20374;-62
2022/07/24 00:11:49;0.00;0.00;0.62;0.00;0.00;0.62;4.90;4.27;;;25.30;32.20;;;;;;2225291;62;20480;-62
2022/07/24 00:14:36;0.00;0.00;0.62;0.00;0.00;0.62;3.50;3.13;;;25.20;32.30;;;;;;2223363;62;20418;-63
2022/07/24 00:17:20;0.00;0.00;0.62;0.00;0.00;0.62;4.53;3.50;;;25.20;32.00;;;;;;2221942;62;20383;-63
2022/07/24 00:20:08;0.00;0.00;0.62;0.00;0.00;0.62;4.50;3.10;;;25.20;32.00;;;;;;2221480;62;20636;-63
2022/07/24 00:22:54;0.00;0.00;0.62;0.00;0.00;0.62;3.90;3.00;;;25.20;32.00;;;;;;2226097;62;20382;-60
2022/07/24 00:25:39;0.00;0.00;0.62;0.00;0.00;0.62;4.50;3.33;;;25.30;32.10;;;;;;2225897;62;20735;-62
2022/07/24 00:28:24;0.00;0.00;0.62;0.00;0.00;0.62;5.70;3.80;;;25.40;32.10;;;;;;2225660;62;20387;-62
2022/07/24 00:31:09;0.00;0.00;0.62;0.00;0.00;0.62;4.67;3.87;;;25.40;32.10;;;;;;2226128;62;20405;-62
2022/07/24 00:33:54;0.00;0.00;0.62;0.00;0.00;0.62;5.17;4.53;;;25.40;32.00;;;;;;2225648;62;20478;-62
2022/07/24 00:36:41;0.00;0.00;0.62;0.00;0.00;0.62;6.37;4.63;;;25.40;32.00;;;;;;2226036;62;20358;-62
2022/07/24 00:39:28;0.00;0.00;0.62;0.00;0.00;0.62;5.67;4.77;;;25.50;31.90;;;;;;2226626;62;20398;-62
2022/07/24 00:42:12;0.00;0.00;0.62;0.00;0.00;0.62;6.10;4.00;;;25.50;31.80;;;;;;2222386;62;20494;-62
2022/07/24 00:44:57;0.00;0.00;0.62;0.00;0.00;0.62;4.50;4.10;;;25.50;31.80;;;;;;2222858;62;20416;-63
2022/07/24 00:47:42;0.00;0.00;0.62;0.00;0.00;0.62;4.93;4.40;;;25.50;31.70;;;;;;2222708;62;20422;-62
2022/07/24 00:50:27;0.00;0.00;0.62;0.00;0.00;0.62;4.30;3.80;;;25.50;31.70;;;;;;2222302;62;20402;-62
2022/07/24 00:53:13;0.00;0.00;0.62;0.00;0.00;0.62;4.77;4.23;;;25.50;31.60;;;;;;2222921;62;20663;-62
2022/07/24 00:55:59;0.00;0.00;0.62;0.00;0.00;0.62;5.50;3.97;;;25.60;31.60;;;;;;2222450;62;20363;-62
2022/07/24 00:58:46;0.00;0.00;0.62;0.00;0.00;0.62;4.60;3.60;;;25.60;31.50;;;;;;2222909;62;20592;-62
2022/07/24 01:01:31;0.00;0.00;0.62;0.00;0.00;0.62;5.00;4.50;;;25.70;31.50;;;;;;2224989;62;20398;-62
2022/07/24 01:04:17;0.00;0.00;0.62;0.00;0.00;0.62;4.80;4.40;;;25.70;31.50;;;;;;2225994;62;20358;-62
2022/07/24 01:07:02;0.00;0.00;0.62;0.00;0.00;0.62;5.03;4.17;;;25.80;31.50;;;;;;2226845;62;20596;-62
2022/07/24 01:09:48;0.00;0.00;0.62;0.00;0.00;0.62;4.70;4.10;;;25.80;31.50;;;;;;2226484;62;20370;-62
2022/07/24 01:12:36;0.00;0.00;0.62;0.00;0.00;0.62;6.30;4.87;;;25.80;31.30;;;;;;2454308;54;20393;-62
2022/07/24 01:15:21;0.00;0.00;0.62;0.00;0.00;0.62;6.80;4.83;;;25.80;31.30;;;;;;2226714;62;20706;-62
2022/07/24 01:18:06;0.00;0.00;0.62;0.00;0.00;0.62;13.37;5.40;;;25.80;31.30;;;;;;2226010;62;20361;-62
2022/07/24 01:20:53;0.00;0.00;0.62;0.00;0.00;0.62;23.10;6.10;;;25.80;31.10;;;;;;2226844;62;20381;-62
2022/07/24 01:23:38;0.00;0.00;0.62;0.00;0.00;0.62;20.00;6.83;;;25.80;31.00;;;;;;2226402;62;20379;-62
2022/07/24 01:26:23;0.00;0.00;0.62;0.00;0.00;0.62;20.77;7.20;;;25.80;30.90;;;;;;2225905;62;20378;-62
2022/07/24 01:29:08;0.00;0.00;0.62;0.00;0.00;0.62;31.40;9.10;;;25.80;30.80;;;;;;2226748;62;20390;-62
2022/07/24 01:31:53;0.00;0.00;0.62;0.00;0.00;0.62;22.23;7.80;;;25.80;30.80;;;;;;2225290;62;20473;-62
2022/07/24 01:34:38;0.00;0.00;0.62;0.00;0.00;0.62;18.83;7.67;;;25.70;30.60;;;;;;2225958;62;20411;-62
2022/07/24 01:37:24;0.00;0.00;0.62;0.00;0.00;0.62;17.50;7.00;;;25.70;30.60;;;;;;2226696;62;20726;-62
2022/07/24 01:40:11;0.00;0.00;0.62;0.00;0.00;0.62;17.00;6.10;;;25.70;30.70;;;;;;2225882;62;20370;-62
2022/07/24 01:42:56;0.00;0.00;0.62;0.00;0.00;0.62;25.37;6.60;;;25.60;30.70;;;;;;2226548;62;21096;-62
2022/07/24 01:45:41;0.00;0.00;0.62;0.00;0.00;0.62;17.83;6.10;;;25.60;30.80;;;;;;2226343;62;20771;-62
2022/07/24 01:48:26;0.00;0.00;0.62;0.00;0.00;0.62;29.47;5.93;;;25.50;30.70;;;;;;2225798;62;20438;-62
2022/07/24 01:51:11;0.00;0.00;0.62;0.00;0.00;0.62;14.87;4.90;;;25.50;30.80;;;;;;2224338;62;20435;-62
2022/07/24 01:53:57;0.00;0.00;0.62;0.00;0.00;0.62;9.00;4.77;;;25.50;30.90;;;;;;2222317;62;20433;-62
2022/07/24 01:56:42;0.00;0.00;0.62;0.00;0.00;0.62;8.60;4.57;;;25.50;31.00;;;;;;2222187;62;20371;-62
2022/07/24 01:59:27;0.00;0.00;0.62;0.00;0.00;0.62;16.33;5.10;;;25.50;31.00;;;;;;2222612;62;20371;-61
2022/07/24 02:02:12;0.00;0.00;0.62;0.00;0.00;0.62;7.50;4.20;;;25.50;30.90;;;;;;2225519;62;20762;-62
2022/07/24 02:04:57;0.00;0.00;0.62;0.00;0.00;0.62;11.63;3.73;;;25.50;30.90;;;;;;2226276;62;20384;-62
2022/07/24 02:07:43;0.00;0.00;0.62;0.00;0.00;0.62;8.90;4.20;;;25.50;30.90;;;;;;2226209;62;20527;-62
2022/07/24 02:10:30;0.00;0.00;0.62;0.00;0.00;0.62;4.43;3.17;;;25.50;31.00;;;;;;2225662;62;20374;-62
2022/07/24 02:13:14;0.00;0.00;0.62;0.00;0.00;0.62;6.23;3.77;;;25.40;30.90;;;;;;2226544;62;20394;-62
2022/07/24 02:15:59;0.00;0.00;0.62;0.00;0.00;0.62;4.40;3.00;;;25.50;31.00;;;;;;2226225;62;20385;-62
2022/07/24 02:18:44;0.00;0.00;0.62;0.00;0.00;0.62;5.50;2.93;;;25.50;31.00;;;;;;2225896;62;20362;-62
2022/07/24 02:21:29;0.00;0.00;0.62;0.00;0.00;0.62;4.23;3.20;;;25.50;31.00;;;;;;2226284;62;20402;-62
2022/07/24 02:24:14;0.00;0.00;0.62;0.00;0.00;0.62;3.40;2.87;;;25.50;30.90;;;;;;2226030;62;20724;-62
2022/07/24 02:27:00;0.00;0.00;0.62;0.00;0.00;0.62;4.20;2.70;;;25.50;30.80;;;;;;2226170;62;20381;-63
2022/07/24 02:29:44;0.00;0.00;0.62;0.00;0.00;0.62;4.00;2.87;;;25.50;30.70;;;;;;2226321;62;20431;-62
2022/07/24 02:32:29;0.00;0.00;0.62;0.00;0.00;0.62;2.87;2.10;;;25.50;30.60;;;;;;2453972;54;20406;-62
2022/07/24 02:35:14;0.00;0.00;0.62;0.00;0.00;0.62;4.57;2.30;;;25.50;31.30;;;;;;2226445;62;20367;-63
2022/07/24 02:37:59;0.00;0.00;0.62;0.00;0.00;0.62;3.50;2.13;;;25.40;30.50;;;;;;2226195;62;20772;-62
2022/07/24 02:40:43;0.00;0.00;0.62;0.00;0.00;0.62;4.20;2.03;;;25.40;30.60;;;;;;2225694;62;20536;-61
2022/07/24 02:43:29;0.00;0.00;0.62;0.00;0.00;0.62;4.00;2.30;;;25.40;30.60;;;;;;2226263;62;20400;-62
2022/07/24 02:46:14;0.00;0.00;0.62;0.00;0.00;0.62;4.70;2.37;;;25.40;30.60;;;;;;2226278;62;20366;-61
2022/07/24 02:48:59;0.00;0.00;0.62;0.00;0.00;0.62;2.50;1.93;;;25.30;30.60;;;;;;2225991;62;20423;-61
2022/07/24 02:51:44;0.00;0.00;0.62;0.00;0.00;0.62;2.67;2.20;;;25.20;30.50;;;;;;2223334;62;20439;-62
2022/07/24 02:54:29;0.00;0.00;0.62;0.00;0.00;0.62;2.20;2.00;;;25.20;30.60;;;;;;2222148;62;20743;-62
2022/07/24 02:57:14;0.00;0.00;0.62;0.00;0.00;0.62;2.50;1.90;;;25.20;30.70;;;;;;2222412;62;20711;-61
2022/07/24 03:00:00;0.00;0.00;0.62;0.00;0.00;0.62;3.60;2.00;;;25.10;30.70;;;;;;2222162;62;20612;-61
2022/07/24 03:02:45;0.00;0.00;0.62;0.00;0.00;0.62;3.30;1.93;;;25.00;30.80;;;;;;2613932;46;20636;-62
2022/07/24 03:05:30;0.00;0.00;0.62;0.00;0.00;0.62;2.93;2.63;;;25.00;30.90;;;;;;2218646;62;20376;-62
2022/07/24 03:08:14;0.00;0.00;0.62;0.00;0.00;0.62;2.43;2.03;;;24.90;31.00;;;;;;2218325;62;20363;-62
2022/07/24 03:10:59;0.00;0.00;0.62;0.00;0.00;0.62;5.73;2.37;;;24.90;31.10;;;;;;2219424;62;20403;-61
2022/07/24 03:13:44;0.00;0.00;0.62;0.00;0.00;0.62;4.43;2.30;;;24.80;31.10;;;;;;2222497;62;20403;-62
2022/07/24 03:16:30;0.00;0.00;0.62;0.00;0.00;0.62;2.63;2.10;;;24.70;31.20;;;;;;2221846;62;20711;-62
2022/07/24 03:19:15;0.00;0.00;0.62;0.00;0.00;0.62;3.50;1.93;;;24.70;31.30;;;;;;2222429;62;20394;-62
2022/07/24 03:22:00;0.00;0.00;0.62;0.00;0.00;0.62;2.47;1.90;;;24.70;31.40;;;;;;2225390;62;20397;-62
2022/07/24 03:24:44;0.00;0.00;0.62;0.00;0.00;0.62;2.50;2.30;;;24.60;31.50;;;;;;2225486;62;20411;-62
2022/07/24 03:27:29;0.00;0.00;0.62;0.00;0.00;0.62;5.10;2.07;;;24.60;31.60;;;;;;2226408;62;20392;-62
2022/07/24 03:30:14;0.00;0.00;0.62;0.00;0.00;0.62;5.13;2.20;;;24.50;31.60;;;;;;2226042;62;20374;-62
2022/07/24 03:33:01;0.00;0.00;0.62;0.00;0.00;0.62;4.83;1.90;;;24.50;31.70;;;;;;2225570;62;20429;-61
2022/07/24 03:35:46;0.00;0.00;0.62;0.00;0.00;0.62;2.53;2.00;;;24.40;31.70;;;;;;2226362;62;20374;-62
2022/07/24 03:38:30;0.00;0.00;0.62;0.00;0.00;0.62;3.60;2.23;;;24.30;31.70;;;;;;2225645;62;20812;-61
2022/07/24 03:41:15;0.00;0.00;0.62;0.00;0.00;0.62;4.20;2.23;;;24.30;31.90;;;;;;2225893;62;20378;-61
2022/07/24 03:44:00;0.00;0.00;0.62;0.00;0.00;0.62;2.90;2.53;;;24.20;31.90;;;;;;2225967;62;20369;-61
2022/07/24 03:46:45;0.00;0.00;0.62;0.00;0.00;0.62;2.93;1.70;;;24.20;32.00;;;;;;2225506;62;20370;-62
2022/07/24 03:49:31;0.00;0.00;0.62;0.00;0.00;0.62;2.47;2.00;;;24.10;32.10;;;;;;2226264;62;20382;-61
2022/07/24 03:52:16;0.00;0.00;0.62;0.00;0.00;0.62;1.80;1.63;;;24.10;32.20;;;;;;2225838;62;20608;-62
2022/07/24 03:55:01;0.00;0.00;0.62;0.00;0.00;0.62;2.70;2.13;;;24.00;32.30;;;;;;2225613;62;20378;-62
2022/07/24 03:57:45;0.00;0.00;0.62;0.00;0.00;0.62;2.03;1.83;;;24.00;32.40;;;;;;2226300;62;20415;-61
2022/07/24 04:00:30;0.00;0.00;0.62;0.00;0.00;0.62;2.90;1.77;;;23.90;32.40;;;;;;2225440;62;20397;-62
2022/07/24 04:03:15;0.00;0.00;0.62;0.00;0.00;0.62;2.63;1.93;;;23.90;32.60;;;;;;2225828;62;20426;-62
2022/07/24 04:06:02;0.00;0.00;0.62;0.00;0.00;0.62;3.07;2.00;;;23.80;32.60;;;;;;2226059;62;20416;-62
2022/07/24 04:08:47;0.00;0.00;0.62;0.00;0.00;0.62;3.47;2.30;;;23.80;32.70;;;;;;2225359;62;20395;-62
2022/07/24 04:11:32;0.00;0.00;0.62;0.00;0.00;0.62;3.63;2.00;;;23.70;32.70;;;;;;2226074;62;20617;-62
2022/07/24 04:14:17;0.00;0.00;0.62;0.00;0.00;0.62;3.30;2.33;;;23.70;32.80;;;;;;2226744;62;20401;-62
2022/07/24 04:17:02;0.00;0.00;0.62;0.00;0.00;0.62;3.90;2.63;;;23.70;33.00;;;;;;2226635;62;20401;-61
2022/07/24 04:19:47;0.00;0.00;0.62;0.00;0.00;0.62;2.40;1.90;;;23.60;33.00;;;;;;2227548;62;20756;-61
2022/07/24 04:22:33;0.00;0.00;0.62;0.00;0.00;0.62;3.93;2.30;;;23.60;33.10;;;;;;2543404;46;20409;-62
2022/07/24 04:25:19;0.00;0.00;0.62;0.00;0.00;0.62;2.50;2.00;;;23.50;33.10;;;;;;2219290;62;20375;-62
2022/07/24 04:28:04;0.00;0.00;0.62;0.00;0.00;0.62;4.00;2.13;;;23.50;33.20;;;;;;2221959;62;20368;-62
2022/07/24 04:30:49;0.00;0.00;0.62;0.00;0.00;0.62;2.33;1.97;;;23.50;33.30;;;;;;2221379;62;20661;-62
2022/07/24 04:33:34;0.00;0.00;0.62;0.00;0.00;0.62;2.40;2.10;;;23.50;33.40;;;;;;2227467;62;20401;-62
2022/07/24 04:36:19;0.00;0.00;0.62;0.00;0.00;0.62;2.50;1.80;;;23.40;33.40;;;;;;2227111;62;20374;-62
2022/07/24 04:39:05;0.00;0.00;0.62;0.00;0.00;0.62;2.63;2.00;;;23.40;33.40;;;;;;2226710;62;20431;-62
2022/07/24 04:41:50;0.00;0.00;0.62;0.00;0.00;0.62;2.37;1.90;;;23.40;33.50;;;;;;2227176;62;20425;-62
2022/07/24 04:44:34;0.00;0.00;0.62;0.00;0.00;0.62;4.13;1.90;;;23.40;33.50;;;;;;2227026;62;20401;-62
2022/07/24 04:47:19;0.00;0.00;0.62;0.00;0.00;0.62;3.23;1.67;;;23.30;33.50;;;;;;2227050;62;20435;-62
2022/07/24 04:50:07;0.00;0.00;0.62;0.00;0.00;0.62;2.00;1.53;;;23.30;33.60;;;;;;2227103;62;20358;-62
2022/07/24 04:52:52;0.00;0.00;0.62;0.00;0.00;0.62;2.73;2.53;;;23.30;33.60;;;;;;2227023;62;20402;-62
2022/07/24 04:55:38;0.00;0.00;0.62;0.00;0.00;0.62;3.50;1.57;;;23.30;33.70;;;;;;2229683;62;20382;-62
2022/07/24 04:58:23;0.00;0.00;0.62;0.00;0.00;0.62;2.93;2.30;;;23.30;33.80;;;;;;2227047;62;20479;-62
2022/07/24 05:01:08;0.00;0.00;0.62;0.00;0.00;0.62;2.20;2.00;;;23.20;34.40;;;;;;2224644;62;20607;-62
2022/07/24 05:03:53;0.00;0.00;0.62;0.00;0.00;0.62;3.13;1.90;;;23.20;33.90;;;;;;2223324;62;20437;-62
2022/07/24 05:06:37;0.00;0.00;0.62;0.00;0.00;0.62;2.33;1.70;;;23.20;33.90;;;;;;2223243;62;20415;-62
2022/07/24 05:09:22;0.00;0.00;0.62;0.00;0.00;0.62;3.67;2.20;;;23.20;33.90;;;;;;2222941;62;20374;-62
2022/07/24 05:12:09;0.00;0.00;0.62;0.00;0.00;0.62;2.30;2.00;;;23.20;34.00;;;;;;2226777;62;20402;-62
2022/07/24 05:14:54;0.00;0.00;0.62;0.00;0.00;0.62;3.20;2.00;;;23.20;34.10;;;;;;2226966;62;20827;-62
2022/07/24 05:17:38;0.00;0.00;0.62;0.00;0.00;0.62;5.07;2.10;;;23.20;34.20;;;;;;2227171;62;20424;-62
2022/07/24 05:20:23;0.00;0.00;0.62;0.00;0.00;0.62;2.80;2.03;;;23.10;34.10;;;;;;2226942;62;20385;-62
2022/07/24 05:23:08;0.00;0.00;0.62;0.00;0.00;0.62;1.70;1.50;;;23.10;34.20;;;;;;2226520;62;20423;-62
2022/07/24 05:25:53;0.00;0.00;0.62;0.00;0.00;0.62;4.17;2.00;;;23.10;34.30;;;;;;2226517;62;20699;-62
2022/07/24 05:28:39;0.00;0.00;0.62;0.00;0.00;0.62;2.93;1.73;;;23.10;34.30;;;;;;2226493;62;20370;-62
2022/07/24 05:31:25;0.00;0.00;0.62;0.00;0.00;0.62;2.67;1.67;;;23.10;34.30;;;;;;2225760;62;20405;-62
2022/07/24 05:34:10;0.00;0.00;0.62;0.00;0.00;0.62;3.30;1.87;;;23.10;34.30;;;;;;2226671;62;20386;-62
2022/07/24 05:36:55;0.00;0.00;0.62;0.00;0.00;0.62;2.37;1.80;;;23.20;34.40;;;;;;2226120;62;20415;-62
2022/07/24 05:39:40;0.00;0.00;0.62;0.00;0.00;0.62;2.80;1.93;;;23.10;34.40;;;;;;2226363;62;20427;-61
2022/07/24 05:42:25;0.00;0.00;0.62;0.00;0.00;0.62;5.20;2.07;;;23.20;34.60;;;;;;2226178;62;20417;-62
2022/07/24 05:45:11;0.00;0.00;0.62;0.00;0.00;0.62;2.10;1.63;;;23.20;34.60;;;;;;2225771;62;20603;-60
2022/07/24 05:47:56;0.00;0.00;0.62;0.00;0.00;0.62;2.47;2.17;;;23.20;34.60;;;;;;2226711;62;20451;-60
2022/07/24 05:50:41;0.00;0.00;0.62;0.00;0.00;0.62;2.00;1.40;;;23.20;34.70;;;;;;2225976;62;20719;-61
2022/07/24 05:53:26;0.00;0.00;0.62;0.00;0.00;0.62;2.27;1.60;;;23.20;34.70;;;;;;2225890;62;20419;-61
2022/07/24 05:56:10;0.00;0.00;0.62;0.00;0.00;0.62;2.10;1.90;;;23.20;34.70;;;;;;2226673;62;20370;-60
2022/07/24 05:58:55;0.00;0.00;0.62;0.00;0.00;0.62;3.07;2.17;;;23.30;34.80;;;;;;2225792;62;20370;-63
2022/07/24 06:01:41;0.00;0.00;0.62;0.00;0.00;0.62;2.03;1.83;;;23.30;34.70;;;;;;2223328;62;20402;-62
2022/07/24 06:04:26;0.00;0.00;0.62;0.00;0.00;0.62;5.00;1.57;;;23.30;34.80;;;;;;2222307;62;20374;-62
2022/07/24 06:07:11;0.00;0.00;0.62;0.00;0.00;0.62;2.80;1.70;;;23.30;34.70;;;;;;2224230;62;20415;-62
2022/07/24 06:09:55;0.00;0.00;0.62;0.00;0.00;0.62;3.60;2.30;;;23.40;34.80;;;;;;2222720;62;20737;-62
2022/07/24 06:12:40;0.00;0.00;0.62;0.00;0.00;0.62;4.00;2.10;;;23.40;34.80;;;;;;2565065;46;20419;-62
2022/07/24 06:15:25;0.00;0.00;0.62;0.00;0.00;0.62;2.10;1.60;;;23.40;34.70;;;;;;2221919;62;20608;-62
2022/07/24 06:18:11;0.00;0.00;0.62;0.00;0.00;0.62;2.70;1.50;;;23.50;34.90;;;;;;2222645;62;20446;-62
2022/07/24 06:20:55;0.00;0.00;0.62;0.00;0.00;0.62;2.10;1.80;;;23.50;34.80;;;;;;2222207;62;20402;-62
2022/07/24 06:23:40;0.00;0.00;0.62;0.00;0.00;0.62;1.70;1.40;;;23.50;34.80;;;;;;2222320;62;20444;-62
2022/07/24 06:26:25;0.00;0.00;0.62;0.00;0.00;0.62;2.40;1.80;;;23.50;34.80;;;;;;2222532;62;20371;-62
2022/07/24 06:29:10;0.00;0.00;0.62;0.00;0.00;0.62;2.33;1.70;;;23.50;34.70;;;;;;2221913;62;20437;-62
2022/07/24 06:31:55;0.00;0.00;0.62;0.00;0.00;0.62;2.17;1.67;;;23.60;34.80;;;;;;2225672;62;20622;-62
2022/07/24 06:34:41;0.00;0.00;0.62;0.00;0.00;0.62;2.97;1.53;;;23.60;34.70;;;;;;2226131;62;20446;-63
2022/07/24 06:37:26;0.00;0.00;0.62;0.00;0.00;0.62;2.33;1.63;;;23.70;34.70;;;;;;2225685;62;20390;-63
2022/07/24 06:40:12;0.00;0.00;0.62;0.00;0.00;0.62;1.90;1.30;;;23.70;34.70;;;;;;2226131;62;20370;-62
2022/07/24 06:42:57;0.00;0.00;0.62;0.00;0.00;0.62;2.43;1.50;;;23.80;34.80;;;;;;2222214;62;20390;-62
2022/07/24 06:45:43;0.00;0.00;0.62;0.00;0.00;0.62;2.17;1.90;;;23.80;34.70;;;;;;2222193;62;20719;-63
2022/07/24 06:48:29;0.00;0.00;0.62;0.00;0.00;0.62;2.27;1.40;;;23.80;34.60;;;;;;2222456;62;20572;-68
2022/07/24 06:51:17;0.00;0.00;0.62;0.00;0.00;0.62;2.37;1.77;;;23.90;34.60;;;;;;2224029;62;20487;-72
2022/07/24 06:54:01;0.00;0.00;0.62;0.00;0.00;0.62;2.07;1.40;;;24.00;34.60;;;;;;2226434;62;20413;-68
2022/07/24 06:56:46;0.00;0.00;0.62;0.00;0.00;0.62;2.70;1.73;;;24.00;34.40;;;;;;2226155;62;20411;-68
2022/07/24 06:59:32;0.00;0.00;0.62;0.00;0.00;0.62;3.63;1.97;;;24.10;34.40;;;;;;2225709;62;20439;-65
2022/07/24 07:02:16;0.00;0.00;0.62;0.00;0.00;0.62;8.23;1.80;;;24.10;34.40;;;;;;2222441;62;20438;-70
2022/07/24 07:05:02;0.00;0.00;0.62;0.00;0.00;0.62;4.50;1.50;;;24.20;34.40;;;;;;2551110;46;20423;-72
2022/07/24 07:07:48;0.00;0.00;0.62;0.00;0.00;0.62;2.53;1.80;;;24.30;34.40;;;;;;2225707;62;20499;-66
2022/07/24 07:10:33;0.00;0.00;0.62;0.00;0.00;0.62;2.50;1.80;;;24.30;34.30;;;;;;2225419;62;20436;-67
2022/07/24 07:13:17;0.00;0.00;0.62;0.00;0.00;0.62;2.40;2.00;;;24.30;34.30;;;;;;2222010;62;20395;-69
2022/07/24 07:16:03;0.00;0.00;0.62;0.00;0.00;0.62;2.10;1.60;;;24.40;34.40;;;;;;2222352;62;20371;-71
2022/07/24 07:18:49;0.00;0.00;0.62;0.00;0.00;0.62;2.20;1.50;;;24.40;34.30;;;;;;2222369;62;20378;-75
2022/07/24 07:21:34;0.00;0.00;0.62;0.00;0.00;0.62;1.87;1.20;;;24.50;34.40;;;;;;2224149;62;20415;-72
2022/07/24 07:24:20;0.00;0.00;0.62;0.00;0.00;0.62;4.17;2.27;;;24.50;34.30;;;;;;2226255;62;20487;-72
2022/07/24 07:27:05;0.00;0.00;0.62;0.00;0.00;0.62;3.20;2.00;;;24.60;34.30;;;;;;2226173;62;20383;-70
2022/07/24 07:29:50;0.00;0.00;0.62;0.00;0.00;0.62;2.00;1.60;;;24.60;34.30;;;;;;2225609;62;20401;-70
2022/07/24 07:32:35;0.00;0.00;0.62;0.00;0.00;0.62;2.37;1.70;;;24.70;34.30;;;;;;2226328;62;20442;-71
2022/07/24 07:35:22;0.00;0.00;0.62;0.00;0.00;0.62;2.57;1.70;;;24.70;34.30;;;;;;2225779;62;20390;-72
2022/07/24 07:38:07;0.00;0.00;0.62;0.00;0.00;0.62;2.13;1.80;;;24.80;34.30;;;;;;2225986;62;20443;-68
2022/07/24 07:40:53;0.00;0.00;0.62;0.00;0.00;0.62;2.73;2.20;;;24.90;34.30;;;;;;2226160;62;20379;-72
2022/07/24 07:43:38;0.00;0.00;0.62;0.00;0.00;0.62;4.73;1.80;;;24.90;34.30;;;;;;2225426;62;20386;-72
2022/07/24 07:46:23;0.00;0.00;0.62;0.00;0.00;0.62;2.80;1.93;;;24.90;34.30;;;;;;2226291;62;20377;-71
2022/07/24 07:49:08;0.00;0.00;0.62;0.00;0.00;0.62;2.17;1.60;;;25.00;34.30;;;;;;2225876;62;20779;-68
2022/07/24 07:51:53;0.00;0.00;0.62;0.00;0.00;0.62;1.70;1.50;;;25.00;34.30;;;;;;2224465;62;20444;-67
2022/07/24 07:54:38;0.00;0.00;0.62;0.00;0.00;0.62;3.13;1.80;;;25.10;34.20;;;;;;2226515;62;20423;-71
2022/07/24 07:57:25;0.00;0.00;0.62;0.00;0.00;0.62;2.07;1.60;;;25.10;34.10;;;;;;2225476;62;20472;-67
2022/07/24 08:00:11;0.00;0.00;0.62;0.00;0.00;0.62;2.53;1.53;;;25.20;34.10;;;;;;2225312;62;20386;-68
2022/07/24 08:02:56;0.00;0.00;0.62;0.00;0.00;0.62;2.30;2.07;;;25.20;34.00;;;;;;2226002;62;20403;-69
2022/07/24 08:05:42;0.00;0.00;0.62;0.00;0.00;0.62;2.70;1.53;;;25.30;34.00;;;;;;2225444;62;20369;-69
2022/07/24 08:08:26;0.00;0.00;0.62;0.00;0.00;0.62;2.60;1.50;;;25.40;34.00;;;;;;2226190;62;20362;-70
2022/07/24 08:11:11;0.00;0.00;0.62;0.00;0.00;0.62;3.93;1.93;;;25.40;34.00;;;;;;2225741;62;20373;-68
2022/07/24 08:13:57;0.00;0.00;0.62;0.00;0.00;0.62;3.00;2.33;;;25.40;33.90;;;;;;2225425;62;20410;-65
2022/07/24 08:16:42;0.00;0.00;0.62;0.00;0.00;0.62;2.57;2.17;;;25.50;33.90;;;;;;2226165;62;20737;-67
2022/07/24 08:19:28;0.00;0.00;0.62;0.00;0.00;0.62;3.47;1.97;;;25.50;33.60;;;;;;2225571;62;20370;-68
2022/07/24 08:22:12;0.00;0.00;0.62;0.00;0.00;0.62;3.10;2.30;;;25.60;33.70;;;;;;2225722;62;20443;-70
2022/07/24 08:24:57;0.00;0.00;0.62;0.00;0.00;0.62;2.63;2.23;;;25.70;33.60;;;;;;2225968;62;20362;-63
2022/07/24 08:27:42;0.00;0.00;0.62;0.00;0.00;0.62;4.60;2.80;;;25.70;33.60;;;;;;2225379;62;20369;-64
2022/07/24 08:30:29;0.00;0.00;0.62;0.00;0.00;0.62;3.53;2.60;;;25.70;33.60;;;;;;2226005;62;20589;-63
2022/07/24 08:33:13;0.00;0.00;0.62;0.00;0.00;0.62;3.40;2.67;;;25.80;33.50;;;;;;2225654;62;20410;-69
2022/07/24 08:35:58;0.00;0.00;0.62;0.00;0.00;0.62;2.90;2.63;;;25.80;33.40;;;;;;2225412;62;20431;-65
2022/07/24 08:38:43;0.00;0.00;0.62;0.00;0.00;0.62;3.00;2.33;;;25.80;33.40;;;;;;2226089;62;20784;-65
2022/07/24 08:41:32;0.00;0.00;0.62;0.00;0.00;0.62;3.30;2.37;;;25.90;33.30;;;;;;2225626;62;20742;-66
2022/07/24 08:44:19;0.00;0.00;0.62;0.00;0.00;0.62;3.67;2.80;;;25.90;33.30;;;;;;2225722;62;20591;-65
2022/07/24 08:47:08;0.00;0.00;0.62;0.00;0.00;0.62;2.73;2.40;;;26.00;33.30;;;;;;2226066;62;20358;-66
2022/07/24 08:49:57;0.00;0.00;0.62;0.00;0.00;0.62;3.73;2.93;;;26.00;33.30;;;;;;2225245;62;20374;-66
2022/07/24 08:52:42;0.00;0.00;0.62;0.00;0.00;0.62;2.90;2.60;;;26.00;33.20;;;;;;2240634;59;20447;-66
2022/07/24 08:55:28;0.00;0.00;0.62;0.00;0.00;0.62;3.50;3.20;;;26.10;33.10;;;;;;2221832;62;20398;-66
2022/07/24 08:58:12;0.00;0.00;0.62;0.00;0.00;0.62;2.37;2.17;;;26.10;33.00;;;;;;2221284;62;20447;-64
2022/07/24 09:00:57;0.00;0.00;0.62;0.00;0.00;0.62;4.03;3.23;;;26.20;32.90;;;;;;2222815;62;20378;-70
2022/07/24 09:03:46;0.00;0.00;0.62;0.00;0.00;0.62;4.53;4.13;;;26.20;32.80;;;;;;2222613;62;20423;-69
2022/07/24 09:06:31;0.00;0.00;0.62;0.00;0.00;0.62;3.47;3.17;;;26.20;32.60;;;;;;2222445;62;20371;-69
2022/07/24 09:09:21;0.00;0.00;0.62;0.00;0.00;0.62;4.17;3.00;;;26.30;32.60;;;;;;2222777;62;20370;-70
2022/07/24 09:12:09;0.00;0.00;0.62;0.00;0.00;0.62;3.80;3.20;;;26.30;33.30;;;;;;2225421;62;20471;-65
2022/07/24 09:14:54;0.00;0.00;0.62;0.00;0.00;0.62;3.70;3.27;;;26.40;32.40;;;;;;2226675;62;20518;-72
2022/07/24 09:17:49;0.00;0.00;0.62;0.00;0.00;0.62;4.37;3.30;;;26.40;32.30;;;;;;2226543;62;20373;-68
2022/07/24 09:20:38;0.00;0.00;0.62;0.00;0.00;0.62;4.50;3.33;;;26.50;32.10;;;;;;2225923;62;20377;-66
2022/07/24 09:23:23;0.00;0.00;0.62;0.00;0.00;0.62;5.50;3.43;;;26.50;32.10;;;;;;2226564;62;20394;-67
2022/07/24 09:26:08;0.00;0.00;0.62;0.00;0.00;0.62;3.87;3.50;;;26.50;31.90;;;;;;2226272;62;20389;-66
2022/07/24 09:28:54;0.00;0.00;0.62;0.00;0.00;0.62;3.83;3.43;;;26.60;31.90;;;;;;2226220;62;20724;-69
2022/07/24 09:31:57;0.00;0.00;0.62;0.00;0.00;0.62;3.97;3.30;;;26.60;31.60;;;;;;2226118;62;20401;-66
2022/07/24 09:34:43;0.00;0.00;0.62;0.00;0.00;0.62;4.20;3.80;;;26.70;31.40;;;;;;2225838;62;20394;-68
2022/07/24 09:37:30;0.00;0.00;0.62;0.00;0.00;0.62;3.90;3.33;;;26.70;31.20;;;;;;2226544;62;20730;-67
2022/07/24 09:40:16;0.00;0.00;0.62;0.00;0.00;0.62;4.20;3.50;;;26.80;31.20;;;;;;2226340;62;20374;-68
2022/07/24 09:43:17;0.00;0.00;0.62;0.00;0.00;0.62;3.73;3.33;;;26.80;31.20;;;;;;2225850;62;20378;-68
2022/07/24 09:46:04;0.00;0.00;0.62;0.00;0.00;0.62;4.40;3.63;;;26.80;31.20;;;;;;2226734;62;20445;-67
2022/07/24 09:48:54;0.00;0.00;0.62;0.00;0.00;0.62;4.27;3.87;;;26.90;31.10;;;;;;2226281;62;20407;-67
2022/07/24 09:51:40;0.00;0.00;0.62;0.00;0.00;0.62;4.47;3.53;;;26.90;31.30;;;;;;2226415;62;20398;-67
2022/07/24 09:54:31;0.00;0.00;0.62;0.00;0.00;0.62;4.47;4.10;;;26.90;31.30;;;;;;2226338;62;20401;-66
2022/07/24 09:57:23;0.00;0.00;0.62;0.00;0.00;0.62;4.97;4.30;;;27.00;31.40;;;;;;2225721;62;20366;-66
2022/07/24 10:00:09;0.00;0.00;0.62;0.00;0.00;0.62;4.50;4.03;;;27.00;31.10;;;;;;2226504;62;20479;-68
2022/07/24 10:02:56;0.00;0.00;0.62;0.00;0.00;0.62;4.40;4.00;;;27.00;31.00;;;;;;2226292;62;20411;-65
2022/07/24 10:05:45;0.00;0.00;0.62;0.00;0.00;0.62;4.07;3.77;;;27.10;31.10;;;;;;2226303;62;20411;-70
2022/07/24 10:08:32;0.00;0.00;0.62;0.00;0.00;0.62;5.27;3.70;;;27.10;31.40;;;;;;2226762;62;20439;-69
2022/07/24 10:11:19;0.00;0.00;0.62;0.00;0.00;0.62;4.27;3.90;;;27.20;31.20;;;;;;2223168;62;20571;-70
2022/07/24 10:14:04;0.00;0.00;0.62;0.00;0.00;0.62;4.33;3.93;;;27.20;31.90;;;;;;2222678;62;20409;-71
2022/07/24 10:17:03;0.00;0.00;0.62;0.00;0.00;0.62;4.10;3.70;;;27.20;31.20;;;;;;2222540;62;20415;-69
2022/07/24 10:19:50;0.00;0.00;0.62;0.00;0.00;0.62;4.53;4.13;;;27.30;31.20;;;;;;2222092;62;20626;-67
2022/07/24 10:23:02;0.00;0.00;0.62;0.00;0.00;0.62;4.80;4.40;;;27.30;31.00;;;;;;2579087;46;20387;-66
2022/07/24 10:26:03;0.00;0.00;0.62;0.00;0.00;0.62;4.93;4.33;;;27.40;30.80;;;;;;2218289;62;20371;-68
2022/07/24 10:28:58;0.00;0.00;0.62;0.00;0.00;0.62;4.60;4.20;;;27.40;30.60;;;;;;2218896;62;20580;-68
2022/07/24 10:31:46;0.00;0.00;0.62;0.00;0.00;0.62;4.47;4.17;;;27.50;30.70;;;;;;2218512;62;20408;-70
2022/07/24 10:34:40;0.00;0.00;0.62;0.00;0.00;0.62;4.90;4.30;;;27.50;30.80;;;;;;2218574;62;20417;-68
2022/07/24 10:37:37;0.00;0.00;0.62;0.00;0.00;0.62;5.17;4.70;;;27.50;30.80;;;;;;2219022;62;20356;-70
2022/07/24 10:40:33;0.00;0.00;0.62;0.00;0.00;0.62;5.40;4.37;;;27.60;30.80;;;;;;2219139;62;20371;-69
2022/07/24 10:43:19;0.00;0.00;0.62;0.00;0.00;0.62;4.90;4.50;;;27.60;30.80;;;;;;2578356;46;20601;-71
2022/07/24 10:46:12;0.00;0.00;0.62;0.00;0.00;0.62;6.27;5.37;;;27.70;30.90;;;;;;2217944;62;20386;-70
2022/07/24 10:48:57;0.00;0.00;0.62;0.00;0.00;0.62;4.80;4.30;;;27.70;30.70;;;;;;2217952;62;20380;-76
2022/07/24 10:51:58;0.00;0.00;0.62;0.00;0.00;0.62;4.87;4.40;;;27.80;30.70;;;;;;2221409;62;20444;-69
2022/07/24 10:54:43;0.00;0.00;0.62;0.00;0.00;0.62;5.00;4.60;;;27.80;30.70;;;;;;2222171;62;20471;-68